Time;durP1;ratioP1;P1;durP2;ratioP2;P2;SDS_P1;SDS_P2;PMS_P1;PMS_P2;Temp;Humidity;BMP_temperature;BMP_pressure;BME280_temperature;BME280_humidity;BME280_pressure;Samples;Min_cycle;Max_cycle;Signal;HPM_P1;HPM_P2
2021/11/02 00:01:45;;;;;;;25.98;18.52;;;12.00;99.90;;;;;;5025319;28;20222;-48
2021/11/02 00:04:12;;;;;;;29.13;18.58;;;11.70;99.90;;;;;;5025942;28;20526;-48
2021/11/02 00:06:40;;;;;;;24.08;18.80;;;11.80;99.90;;;;;;5028061;28;20211;-48
2021/11/02 00:09:11;;;;;;;24.17;19.95;;;11.80;99.90;;;;;;5023880;28;20228;-46
2021/11/02 00:11:38;;;;;;;27.23;18.75;;;12.10;99.90;;;;;;5025545;28;20211;-48
2021/11/02 00:14:08;;;;;;;24.25;18.45;;;12.10;99.90;;;;;;5025687;28;20204;-54
2021/11/02 00:16:36;;;;;;;32.60;20.25;;;12.10;99.90;;;;;;5024578;28;20258;-58
2021/11/02 00:19:05;;;;;;;28.13;17.77;;;11.90;99.90;;;;;;5024079;28;20538;-50
2021/11/02 00:21:37;;;;;;;24.83;18.65;;;11.70;99.90;;;;;;5024488;28;20338;-51
2021/11/02 00:24:13;;;;;;;25.45;17.42;;;11.70;99.90;;;;;;5030899;28;20227;-57
2021/11/02 00:26:41;;;;;;;25.25;17.98;;;11.60;99.90;;;;;;5023515;28;20226;-53
2021/11/02 00:29:09;;;;;;;27.33;19.17;;;11.50;99.90;;;;;;5029834;28;20442;-52
2021/11/02 00:31:36;;;;;;;25.88;17.98;;;11.50;99.90;;;;;;5020824;28;20250;-46
2021/11/02 00:34:04;;;;;;;29.58;20.05;;;11.70;99.90;;;;;;5027776;28;20392;-47
2021/11/02 00:36:32;;;;;;;31.63;19.77;;;11.70;99.90;;;;;;5024623;28;20482;-46
2021/11/02 00:38:59;;;;;;;23.95;19.65;;;11.80;99.90;;;;;;5023027;28;20251;-51
2021/11/02 00:41:26;;;;;;;23.70;18.50;;;11.80;99.90;;;;;;5015444;28;20279;-48
2021/11/02 00:43:55;;;;;;;26.33;17.70;;;12.00;99.90;;;;;;5022816;28;20286;-55
2021/11/02 00:46:33;;;;;;;28.20;19.45;;;11.90;99.90;;;;;;5024881;28;20208;-55
2021/11/02 00:49:03;;;;;;;23.88;18.65;;;12.00;99.90;;;;;;5024645;28;20228;-51
2021/11/02 00:51:31;;;;;;;28.42;18.83;;;12.00;99.90;;;;;;5026345;28;20382;-61
2021/11/02 00:53:58;;;;;;;26.67;18.23;;;12.10;99.90;;;;;;5025602;28;20266;-52
2021/11/02 00:56:25;;;;;;;26.02;19.27;;;12.00;99.90;;;;;;5024640;28;20201;-60
2021/11/02 00:58:53;;;;;;;25.02;17.15;;;12.00;99.90;;;;;;5023069;28;20777;-56
2021/11/02 01:01:20;;;;;;;26.58;19.48;;;12.10;99.90;;;;;;5021582;28;20255;-47
2021/11/02 01:03:47;;;;;;;30.15;19.92;;;11.90;99.90;;;;;;5021157;28;20211;-52
2021/11/02 01:06:14;;;;;;;28.00;21.02;;;11.90;99.90;;;;;;5025150;28;20212;-47
2021/11/02 01:08:42;;;;;;;31.48;20.10;;;11.70;99.90;;;;;;5017318;28;20251;-50
2021/11/02 01:11:09;;;;;;;25.10;18.80;;;11.60;99.90;;;;;;5023138;28;20208;-51
2021/11/02 01:13:36;;;;;;;32.78;21.40;;;11.60;99.90;;;;;;5021956;28;20211;-48
2021/11/02 01:16:03;;;;;;;26.98;20.42;;;11.90;99.90;;;;;;5020821;28;20676;-52
2021/11/02 01:18:31;;;;;;;28.88;20.75;;;12.10;99.90;;;;;;5020357;28;20258;-46
2021/11/02 01:20:58;;;;;;;29.35;19.10;;;12.20;99.90;;;;;;5018130;28;20209;-52
2021/11/02 01:23:25;;;;;;;23.13;18.50;;;12.40;99.90;;;;;;5020639;28;20215;-48
2021/11/02 01:25:52;;;;;;;24.67;18.33;;;12.60;99.90;;;;;;5020182;28;20228;-47
2021/11/02 01:28:20;;;;;;;20.67;16.83;;;12.40;99.90;;;;;;5026660;28;20211;-48
2021/11/02 01:30:47;;;;;;;29.75;19.23;;;12.40;99.90;;;;;;5020390;28;20227;-49
2021/11/02 01:33:15;;;;;;;30.55;20.80;;;12.50;99.90;;;;;;5020479;28;20411;-46
2021/11/02 01:35:42;;;;;;;27.20;19.67;;;12.50;99.90;;;;;;5023129;28;20201;-50
2021/11/02 01:38:10;;;;;;;25.70;22.27;;;12.50;99.90;;;;;;5021153;28;20239;-50
2021/11/02 01:40:38;;;;;;;24.40;17.40;;;12.50;99.90;;;;;;5018815;28;20244;-51
2021/11/02 01:43:05;;;;;;;27.25;20.20;;;12.60;99.90;;;;;;5019790;28;20200;-46
2021/11/02 01:45:33;;;;;;;24.85;18.75;;;12.50;99.90;;;;;;5021668;28;20231;-54
2021/11/02 01:48:00;;;;;;;26.00;19.77;;;12.40;99.90;;;;;;5024059;28;20203;-48
2021/11/02 01:50:28;;;;;;;30.73;19.27;;;12.40;99.90;;;;;;5020142;28;20231;-48
2021/11/02 01:52:55;;;;;;;28.42;20.20;;;12.50;99.90;;;;;;5025249;28;20387;-49
2021/11/02 01:55:23;;;;;;;29.77;21.35;;;12.40;99.90;;;;;;5029824;28;20230;-47
2021/11/02 01:57:50;;;;;;;28.70;21.40;;;12.40;99.90;;;;;;5021317;28;20208;-54
2021/11/02 02:00:19;;;;;;;23.65;17.50;;;12.40;99.90;;;;;;5019390;28;20246;-47
2021/11/02 02:03:03;;;;;;;27.70;20.98;;;12.50;99.90;;;;;;5021630;28;20205;-50
2021/11/02 02:06:00;;;;;;;26.35;20.65;;;12.40;99.90;;;;;;5025332;28;20346;-47
2021/11/02 02:08:39;;;;;;;25.45;19.33;;;12.50;99.90;;;;;;5014822;28;20661;-47
2021/11/02 02:11:44;;;;;;;30.33;21.90;;;12.60;99.90;;;;;;5031904;28;20217;-48
2021/11/02 02:14:33;;;;;;;27.17;19.15;;;12.50;99.90;;;;;;4991229;28;20213;-54
2021/11/02 02:17:01;;;;;;;27.17;19.88;;;12.40;99.90;;;;;;5028111;28;20254;-55
2021/11/02 02:19:31;;;;;;;24.98;19.70;;;12.40;99.90;;;;;;5023558;28;20307;-47
2021/11/02 02:22:47;;;;;;;29.30;20.65;;;12.30;99.90;;;;;;5025023;28;20223;-46
2021/11/02 02:25:32;;;;;;;31.38;24.52;;;12.30;99.90;;;;;;4988711;28;20274;-48
2021/11/02 02:28:18;;;;;;;42.70;29.02;;;12.30;99.90;;;;;;5019224;28;20204;-49
2021/11/02 02:30:52;;;;;;;42.80;29.75;;;12.30;99.90;;;;;;5019191;28;20274;-48
2021/11/02 02:33:24;;;;;;;39.58;28.88;;;12.30;99.90;;;;;;5011294;28;20215;-46
2021/11/02 02:35:53;;;;;;;40.53;29.92;;;12.20;99.90;;;;;;5018321;28;20455;-46
2021/11/02 02:38:24;;;;;;;40.78;28.65;;;12.10;99.90;;;;;;5018661;28;20212;-50
2021/11/02 02:40:53;;;;;;;42.90;28.63;;;12.10;99.90;;;;;;5019400;28;20228;-51
2021/11/02 02:43:22;;;;;;;43.72;29.58;;;12.20;99.90;;;;;;5019487;28;20399;-50
2021/11/02 02:45:51;;;;;;;42.00;27.38;;;12.20;99.90;;;;;;5019634;28;20227;-47
2021/11/02 02:48:20;;;;;;;41.88;30.77;;;12.30;99.90;;;;;;5019247;28;20545;-47
2021/11/02 02:50:49;;;;;;;33.00;26.10;;;12.20;99.90;;;;;;5022909;28;20223;-56
2021/11/02 02:53:17;;;;;;;43.20;26.65;;;12.30;99.90;;;;;;5026427;28;20243;-46
2021/11/02 02:55:46;;;;;;;35.03;25.00;;;12.30;99.90;;;;;;5022552;28;20267;-52
2021/11/02 02:58:15;;;;;;;34.20;25.05;;;12.20;99.90;;;;;;5022211;28;20266;-49
2021/11/02 03:00:43;;;;;;;35.25;25.23;;;12.30;99.90;;;;;;5023147;28;20229;-46
2021/11/02 03:03:12;;;;;;;33.88;25.75;;;12.20;99.90;;;;;;5023189;28;20212;-49
2021/11/02 03:05:40;;;;;;;36.63;25.92;;;12.10;99.90;;;;;;5023197;28;20390;-45
2021/11/02 03:08:09;;;;;;;41.03;26.40;;;12.10;99.90;;;;;;5018893;28;20230;-47
2021/11/02 03:10:37;;;;;;;33.85;24.83;;;12.10;99.90;;;;;;5026111;28;20232;-46
2021/11/02 03:13:11;;;;;;;32.95;24.27;;;12.10;99.90;;;;;;5026646;28;20205;-47
2021/11/02 05:48:22;;;;;;;48.83;34.42;;;10.70;99.90;;;;;;5013601;28;20200;-51
2021/11/02 05:59:52;;;;;;;56.80;32.88;;;10.70;99.90;;;;;;5019544;28;20227;-53
2021/11/02 06:02:00;;;;;;;40.78;28.85;;;10.50;99.90;;;;;;5015445;28;20233;-48
2021/11/02 06:04:56;;;;;;;45.80;31.35;;;10.50;99.90;;;;;;5028667;28;20273;-50
2021/11/02 06:30:06;;;;;;;46.47;32.22;;;10.70;99.90;;;;;;5022092;28;20263;-48
2021/11/02 06:32:37;;;;;;;52.42;33.95;;;10.80;99.90;;;;;;5020196;28;20250;-50
2021/11/02 06:43:16;;;;;;;47.35;33.70;;;11.00;99.90;;;;;;5024036;28;20269;-50
2021/11/02 07:00:00;;;;;;;50.47;31.90;;;11.00;99.90;;;;;;5021939;28;20227;-44
2021/11/02 07:20:25;;;;;;;10.43;6.72;;;10.30;99.90;;;;;;5021126;28;20274;-46
2021/11/02 07:25:32;;;;;;;8.95;7.25;;;10.10;99.90;;;;;;5023345;28;20378;-48
2021/11/02 08:47:33;;;;;;;9.30;6.97;;;10.00;99.90;;;;;;5024370;28;20226;-51
2021/11/02 08:50:06;;;;;;;6.93;6.22;;;10.10;99.90;;;;;;5023536;28;20305;-49
2021/11/02 08:52:34;;;;;;;7.38;5.78;;;10.10;99.90;;;;;;5025021;28;20238;-48
2021/11/02 08:55:05;;;;;;;8.30;7.15;;;10.10;99.90;;;;;;5021454;28;20195;-45
2021/11/02 08:57:33;;;;;;;6.78;5.97;;;10.10;99.90;;;;;;5020350;28;20220;-52
2021/11/02 09:00:02;;;;;;;6.57;5.60;;;10.10;99.90;;;;;;5020301;28;20457;-53
2021/11/02 09:02:34;;;;;;;7.60;6.05;;;10.20;99.90;;;;;;5022465;28;20261;-50
2021/11/02 09:05:14;;;;;;;4.90;4.47;;;10.20;99.90;;;;;;5030719;28;20504;-49
2021/11/02 09:07:45;;;;;;;7.07;6.05;;;10.10;99.90;;;;;;5022519;28;20222;-47
2021/11/02 09:10:15;;;;;;;5.13;4.55;;;10.10;99.90;;;;;;5027430;28;20613;-47
2021/11/02 09:12:54;;;;;;;6.32;5.05;;;10.10;99.90;;;;;;5022016;28;20199;-51
2021/11/02 09:15:27;;;;;;;6.10;5.50;;;10.10;99.90;;;;;;5026835;28;20240;-49
2021/11/02 09:17:56;;;;;;;8.80;5.53;;;10.10;99.90;;;;;;5018529;28;20470;-47
2021/11/02 09:20:25;;;;;;;6.78;6.10;;;10.10;99.90;;;;;;5020970;28;20230;-48
2021/11/02 09:22:52;;;;;;;5.93;5.32;;;10.10;99.90;;;;;;5027846;28;20412;-48
2021/11/02 09:25:20;;;;;;;7.18;5.20;;;10.20;99.90;;;;;;5020883;28;20505;-47
2021/11/02 09:27:49;;;;;;;6.20;5.60;;;10.10;99.90;;;;;;5025733;28;20457;-49
2021/11/02 09:30:19;;;;;;;8.73;5.07;;;10.10;99.90;;;;;;5020489;28;20234;-53
2021/11/02 09:32:51;;;;;;;6.88;5.35;;;10.10;99.90;;;;;;5020445;28;20242;-49
2021/11/02 09:35:21;;;;;;;4.95;4.43;;;10.30;99.90;;;;;;5019128;28;20203;-47
2021/11/02 09:38:15;;;;;;;5.32;4.82;;;10.40;99.90;;;;;;5016258;28;20514;-55
2021/11/02 09:41:33;;;;;;;5.25;4.25;;;10.30;99.90;;;;;;5019941;28;20222;-52
2021/11/02 09:44:39;;;;;;;6.00;4.97;;;10.20;99.90;;;;;;5000092;28;20402;-49
2021/11/02 09:47:29;;;;;;;5.65;4.47;;;10.30;99.90;;;;;;5019841;28;20222;-51
2021/11/02 09:50:13;;;;;;;5.47;5.00;;;10.20;99.90;;;;;;5019897;28;20262;-50
2021/11/02 09:53:02;;;;;;;7.63;5.90;;;10.30;99.90;;;;;;5027807;28;20207;-52
2021/11/02 09:55:53;;;;;;;4.55;4.15;;;10.30;99.90;;;;;;5020019;28;20332;-52
2021/11/02 09:59:02;;;;;;;4.78;3.80;;;10.10;99.90;;;;;;5009616;28;20198;-47
2021/11/02 10:01:32;;;;;;;5.13;4.63;;;10.30;99.90;;;;;;5016046;28;20509;-52
2021/11/02 10:04:08;;;;;;;5.00;3.88;;;10.20;99.90;;;;;;5019968;28;20202;-48
2021/11/02 10:06:56;;;;;;;4.32;3.92;;;10.00;99.90;;;;;;5021204;28;20381;-48
2021/11/02 10:09:48;;;;;;;7.10;5.60;;;10.00;99.90;;;;;;5021969;28;20279;-53
2021/11/02 10:12:23;;;;;;;5.90;5.30;;;10.00;99.90;;;;;;5020427;28;20199;-50
2021/11/02 10:15:02;;;;;;;6.10;5.45;;;10.00;99.90;;;;;;5022283;28;20241;-51
2021/11/02 10:18:09;;;;;;;8.13;5.78;;;10.10;99.90;;;;;;5019380;28;20409;-49
2021/11/02 10:21:07;;;;;;;4.63;4.10;;;10.10;99.90;;;;;;4997031;28;20241;-52
2021/11/02 10:24:04;;;;;;;4.63;4.05;;;10.10;99.90;;;;;;5015725;28;20210;-54
2021/11/02 10:27:02;;;;;;;3.75;3.45;;;10.00;99.90;;;;;;5018812;28;20233;-50
2021/11/02 10:29:53;;;;;;;4.57;4.18;;;10.00;99.90;;;;;;5019129;28;20227;-52
2021/11/02 10:32:26;;;;;;;3.67;3.38;;;9.90;99.90;;;;;;5018215;28;20209;-49
2021/11/02 10:35:20;;;;;;;3.20;2.90;;;9.90;99.90;;;;;;5019760;28;20206;-48
2021/11/02 10:38:02;;;;;;;3.35;2.95;;;9.90;99.90;;;;;;5015439;28;20209;-50
2021/11/02 10:40:34;;;;;;;3.95;3.53;;;9.90;99.90;;;;;;5018137;28;20221;-48
2021/11/02 10:43:16;;;;;;;6.13;4.80;;;9.90;99.90;;;;;;5016793;28;20205;-53
2021/11/02 10:45:52;;;;;;;5.55;4.68;;;10.00;99.90;;;;;;5018389;28;20329;-50
2021/11/02 10:48:38;;;;;;;4.45;3.78;;;10.10;99.90;;;;;;5011503;28;20242;-46
2021/11/02 10:51:09;;;;;;;3.28;3.08;;;10.00;99.90;;;;;;5022751;28;20252;-50
2021/11/02 10:53:45;;;;;;;4.03;3.58;;;10.10;99.90;;;;;;5024063;28;20310;-48
2021/11/02 10:57:05;;;;;;;4.40;3.80;;;10.20;99.90;;;;;;5023953;28;20369;-47
2021/11/02 10:59:41;;;;;;;4.88;3.60;;;10.40;99.90;;;;;;5017823;28;20232;-45
2021/11/02 11:02:25;;;;;;;4.15;3.75;;;10.60;99.90;;;;;;5020369;28;20206;-49
2021/11/02 11:04:55;;;;;;;4.90;4.05;;;10.70;99.90;;;;;;5016519;28;20203;-44
2021/11/02 11:07:25;;;;;;;3.35;3.08;;;10.80;99.90;;;;;;5020119;28;20232;-47
2021/11/02 11:09:55;;;;;;;3.60;3.30;;;11.20;99.90;;;;;;5019266;28;20558;-46
2021/11/02 11:12:22;;;;;;;3.70;3.40;;;11.30;99.90;;;;;;5020112;28;20518;-42
2021/11/02 11:14:53;;;;;;;3.65;3.35;;;11.60;99.90;;;;;;5018991;28;20239;-50
2021/11/02 11:17:27;;;;;;;3.70;3.30;;;11.80;99.90;;;;;;5019951;28;20208;-46
2021/11/02 11:20:08;;;;;;;3.60;3.33;;;11.90;99.90;;;;;;5023525;28;20234;-44
2021/11/02 11:22:47;;;;;;;4.80;4.22;;;11.90;99.90;;;;;;5023893;28;20207;-49
2021/11/02 11:25:26;;;;;;;4.22;3.58;;;11.80;99.90;;;;;;5023230;28;20443;-49
2021/11/02 11:27:57;;;;;;;2.50;2.30;;;11.80;99.90;;;;;;5023087;28;20220;-50
2021/11/02 11:30:31;;;;;;;3.25;2.95;;;12.00;99.90;;;;;;5023376;28;20543;-49
2021/11/02 11:33:00;;;;;;;10.77;4.72;;;12.20;99.90;;;;;;5022357;28;20204;-47
2021/11/02 11:35:30;;;;;;;3.60;3.30;;;12.30;99.90;;;;;;5022990;28;20398;-51
2021/11/02 11:38:04;;;;;;;1.92;1.80;;;12.30;99.90;;;;;;5022642;28;20205;-49
2021/11/02 11:40:34;;;;;;;2.60;1.70;;;12.40;99.90;;;;;;5022470;28;20258;-51
2021/11/02 11:43:05;;;;;;;2.28;2.08;;;12.60;99.90;;;;;;5022740;28;20208;-49
2021/11/02 11:45:38;;;;;;;2.22;2.13;;;12.30;99.90;;;;;;5022886;28;20251;-49
2021/11/02 11:48:17;;;;;;;3.55;2.85;;;12.40;99.90;;;;;;5022323;28;20225;-50
2021/11/02 11:50:52;;;;;;;5.50;2.03;;;12.60;99.90;;;;;;5025906;28;20546;-50
2021/11/02 11:53:21;;;;;;;1.85;1.75;;;12.30;99.90;;;;;;5030299;28;20208;-49
2021/11/02 11:56:10;;;;;;;3.30;3.10;;;12.10;99.90;;;;;;5024511;28;20200;-49
2021/11/02 11:58:51;;;;;;;4.72;4.32;;;12.00;99.90;;;;;;5021869;28;20207;-48
2021/11/02 12:01:40;;;;;;;1.88;1.77;;;12.00;99.90;;;;;;5024447;28;20251;-52
2021/11/02 12:04:22;;;;;;;2.85;2.65;;;12.20;99.90;;;;;;5022908;28;20204;-48
2021/11/02 12:07:27;;;;;;;1.90;1.80;;;12.20;99.90;;;;;;5026172;28;20307;-49
2021/11/02 12:09:54;;;;;;;1.70;1.52;;;12.30;99.90;;;;;;5018649;28;20243;-54
2021/11/02 12:12:26;;;;;;;2.33;2.22;;;12.30;99.90;;;;;;5022565;28;20274;-48
2021/11/02 12:14:56;;;;;;;2.40;2.20;;;12.40;99.90;;;;;;5024063;28;20196;-49
2021/11/02 12:17:24;;;;;;;2.25;2.08;;;12.50;99.90;;;;;;5029158;28;20207;-52
2021/11/02 12:19:54;;;;;;;2.22;2.05;;;12.50;99.90;;;;;;5023724;28;20282;-51
2021/11/02 12:22:33;;;;;;;2.33;2.13;;;12.50;99.90;;;;;;5021559;28;20208;-50
2021/11/02 12:25:04;;;;;;;2.13;1.92;;;12.50;99.90;;;;;;5026325;28;20203;-50
2021/11/02 12:27:40;;;;;;;2.08;1.98;;;12.40;99.90;;;;;;5021472;28;20232;-46
2021/11/02 12:30:13;;;;;;;2.10;2.00;;;12.50;99.90;;;;;;5019915;28;20394;-46
2021/11/02 12:32:46;;;;;;;1.92;1.80;;;12.40;99.90;;;;;;5021290;28;20442;-48
2021/11/02 12:35:21;;;;;;;2.30;2.10;;;12.00;99.90;;;;;;5020951;28;20590;-46
2021/11/02 12:37:55;;;;;;;2.03;1.92;;;11.80;99.90;;;;;;5021427;28;20326;-50
2021/11/02 12:40:33;;;;;;;2.15;1.95;;;11.50;99.90;;;;;;5020703;28;20235;-51
2021/11/02 12:43:31;;;;;;;2.40;2.20;;;11.30;99.90;;;;;;5021178;28;20417;-44
2021/11/02 12:46:02;;;;;;;4.10;3.80;;;11.30;99.90;;;;;;5021059;28;20250;-46
2021/11/02 12:48:31;;;;;;;5.22;4.32;;;11.50;99.90;;;;;;5021219;28;20247;-50
2021/11/02 12:51:15;;;;;;;4.45;3.70;;;11.80;99.90;;;;;;5024581;28;20298;-48
2021/11/02 12:53:47;;;;;;;3.75;2.85;;;11.90;99.90;;;;;;5020608;28;20204;-51
2021/11/02 12:56:17;;;;;;;2.75;2.55;;;12.00;99.90;;;;;;5023918;28;20200;-51
2021/11/02 12:58:47;;;;;;;2.17;2.08;;;12.20;99.90;;;;;;5020481;28;20211;-49
2021/11/02 13:01:36;;;;;;;2.47;2.28;;;12.10;99.90;;;;;;5023275;28;20457;-54
2021/11/02 13:04:08;;;;;;;2.72;2.20;;;12.30;99.90;;;;;;5025761;28;20242;-47
2021/11/02 13:06:46;;;;;;;2.75;2.55;;;12.30;99.90;;;;;;5027940;28;20278;-49
2021/11/02 13:09:18;;;;;;;3.88;2.50;;;12.40;99.90;;;;;;5024658;28;20285;-48
2021/11/02 13:11:50;;;;;;;1.95;1.85;;;12.50;99.90;;;;;;5025412;28;20197;-46
2021/11/02 13:14:17;;;;;;;3.55;2.80;;;12.60;99.90;;;;;;5020750;28;20204;-52
2021/11/02 13:17:00;;;;;;;1.98;1.80;;;12.60;99.90;;;;;;5032753;28;20498;-52
2021/11/02 13:19:44;;;;;;;2.15;1.77;;;12.50;99.90;;;;;;5026375;28;20224;-53
2021/11/02 13:22:20;;;;;;;1.95;1.85;;;12.60;99.90;;;;;;5031703;28;20483;-50
2021/11/02 13:25:09;;;;;;;4.07;2.70;;;12.30;99.90;;;;;;5026805;28;20238;-51
2021/11/02 13:27:45;;;;;;;1.45;1.35;;;12.10;99.90;;;;;;5026908;28;20282;-45
2021/11/02 13:30:32;;;;;;;3.25;2.20;;;12.00;99.90;;;;;;5023217;28;20242;-47
2021/11/02 13:33:04;;;;;;;2.05;1.88;;;12.00;99.90;;;;;;5020343;28;20204;-48
2021/11/02 13:35:45;;;;;;;2.25;1.70;;;12.20;99.90;;;;;;5019730;28;20208;-46
2021/11/02 13:38:39;;;;;;;2.05;1.75;;;12.30;99.90;;;;;;5019701;28;20544;-46
2021/11/02 13:41:21;;;;;;;1.77;1.67;;;12.40;99.90;;;;;;5017975;28;20232;-45
2021/11/02 13:43:50;;;;;;;2.60;1.67;;;12.60;99.90;;;;;;5012537;28;20272;-46
2021/11/02 13:46:23;;;;;;;4.18;1.88;;;12.70;99.90;;;;;;5019923;28;20247;-48
2021/11/02 13:48:53;;;;;;;2.08;1.70;;;12.70;99.90;;;;;;5026580;28;20235;-54
2021/11/02 13:51:25;;;;;;;1.63;1.45;;;12.70;99.90;;;;;;5024805;28;20250;-48
2021/11/02 13:53:53;;;;;;;2.15;1.85;;;12.80;99.90;;;;;;5019934;28;20268;-48
2021/11/02 13:56:24;;;;;;;1.60;1.50;;;13.20;99.90;;;;;;5020768;28;20204;-49
2021/11/02 13:58:53;;;;;;;1.92;1.65;;;13.50;99.90;;;;;;5019479;28;20455;-51
2021/11/02 14:01:37;;;;;;;1.70;1.60;;;13.50;99.90;;;;;;5019431;28;20506;-49
2021/11/02 14:04:20;;;;;;;1.70;1.60;;;13.20;99.90;;;;;;5020028;28;20247;-50
2021/11/02 14:06:50;;;;;;;1.38;1.27;;;13.00;99.90;;;;;;5025086;28;20243;-48
2021/11/02 14:09:25;;;;;;;1.77;1.60;;;12.90;99.90;;;;;;5018368;28;20231;-47
2021/11/02 14:11:52;;;;;;;1.98;1.30;;;12.80;99.90;;;;;;5020288;28;20200;-46
2021/11/02 14:14:36;;;;;;;1.25;1.15;;;12.60;99.90;;;;;;5020018;28;20201;-52
2021/11/02 14:17:23;;;;;;;1.80;1.70;;;12.40;99.90;;;;;;5021451;28;20384;-47
2021/11/02 14:19:54;;;;;;;1.70;1.60;;;12.20;99.90;;;;;;5020458;28;20224;-46
2021/11/02 14:22:48;;;;;;;1.45;1.35;;;11.90;99.90;;;;;;5026712;28;20204;-49
2021/11/02 14:25:17;;;;;;;1.50;1.40;;;11.90;99.90;;;;;;5018767;28;20204;-52
2021/11/02 14:27:47;;;;;;;1.80;1.70;;;11.80;99.90;;;;;;5025431;28;20266;-52
2021/11/02 14:30:32;;;;;;;2.00;1.80;;;11.90;99.90;;;;;;5018793;28;20278;-48
2021/11/02 14:33:20;;;;;;;3.33;2.42;;;12.20;99.90;;;;;;5019547;28;20200;-43
2021/11/02 14:35:50;;;;;;;1.25;1.25;;;12.30;99.90;;;;;;5019284;28;20526;-44
2021/11/02 14:38:25;;;;;;;2.75;1.50;;;12.30;99.90;;;;;;5019128;28;20404;-50
2021/11/02 14:41:29;;;;;;;2.15;1.55;;;12.10;99.90;;;;;;5023267;28;20380;-49
2021/11/02 14:44:24;;;;;;;2.50;1.23;;;12.20;99.90;;;;;;5023613;28;20204;-44
2021/11/02 14:46:54;;;;;;;2.40;1.75;;;12.20;99.90;;;;;;5015330;28;20438;-46
2021/11/02 14:49:30;;;;;;;2.25;1.65;;;11.90;99.90;;;;;;5017338;28;20235;-47
2021/11/02 14:52:03;;;;;;;5.10;2.10;;;11.80;99.90;;;;;;5020834;28;20207;-52
2021/11/02 14:54:42;;;;;;;6.90;3.47;;;11.90;99.90;;;;;;5022739;28;20199;-50
2021/11/02 14:57:18;;;;;;;3.60;2.17;;;12.10;99.90;;;;;;5024481;28;20442;-45
2021/11/02 14:59:55;;;;;;;5.90;2.50;;;12.00;99.90;;;;;;5020226;28;20238;-51
2021/11/02 15:02:43;;;;;;;2.53;2.33;;;11.90;99.90;;;;;;5020103;28;20200;-49
2021/11/02 15:05:13;;;;;;;4.55;2.65;;;11.60;99.90;;;;;;5021761;28;20279;-48
2021/11/02 15:07:45;;;;;;;2.08;1.88;;;11.60;99.90;;;;;;5025803;28;20609;-51
2021/11/02 15:10:15;;;;;;;1.52;1.42;;;11.50;99.90;;;;;;5018702;28;20543;-50
2021/11/02 15:12:46;;;;;;;4.20;2.95;;;11.80;99.90;;;;;;5017707;28;20252;-52
2021/11/02 15:15:14;;;;;;;2.58;2.25;;;11.80;99.90;;;;;;5018954;28;20223;-46
2021/11/02 15:17:41;;;;;;;1.70;1.60;;;11.70;99.90;;;;;;5015867;28;20208;-45
2021/11/02 15:20:26;;;;;;;3.38;2.22;;;11.30;99.90;;;;;;5017861;28;20255;-45
2021/11/02 15:22:55;;;;;;;2.20;2.00;;;11.50;99.90;;;;;;5016708;28;20382;-52
2021/11/02 15:25:23;;;;;;;4.55;3.20;;;11.70;99.90;;;;;;5021986;28;20545;-51
2021/11/02 15:28:00;;;;;;;3.40;2.70;;;11.80;99.90;;;;;;5016117;28;20460;-48
2021/11/02 15:30:29;;;;;;;3.13;2.83;;;11.80;99.90;;;;;;5012264;28;20280;-53
2021/11/02 15:33:01;;;;;;;3.85;2.90;;;11.80;99.90;;;;;;5017157;28;20642;-52
2021/11/02 15:35:28;;;;;;;3.80;3.10;;;11.60;99.90;;;;;;5016305;28;20207;-52
2021/11/02 15:37:58;;;;;;;3.47;3.17;;;11.40;99.90;;;;;;5021897;28;20217;-48
2021/11/02 15:40:39;;;;;;;6.60;3.47;;;11.50;99.90;;;;;;5024730;28;20379;-48
2021/11/02 15:43:09;;;;;;;4.38;3.15;;;11.60;99.90;;;;;;5024617;28;20206;-47
2021/11/02 15:45:39;;;;;;;5.38;4.00;;;11.70;99.90;;;;;;5024509;28;20225;-48
2021/11/02 15:48:13;;;;;;;2.75;2.55;;;11.70;99.90;;;;;;5021573;28;20230;-50
2021/11/02 15:50:44;;;;;;;3.50;2.95;;;11.90;99.90;;;;;;5023665;28;20254;-51
2021/11/02 15:53:12;;;;;;;4.30;2.45;;;11.90;99.90;;;;;;5020711;28;20204;-51
2021/11/02 15:55:39;;;;;;;4.30;3.13;;;11.80;99.90;;;;;;5018650;28;20269;-52
2021/11/02 15:58:12;;;;;;;5.45;2.95;;;11.90;99.90;;;;;;5014949;28;20510;-47
2021/11/02 16:00:44;;;;;;;3.28;2.88;;;11.80;99.90;;;;;;5016492;28;20232;-48
2021/11/02 16:03:12;;;;;;;3.92;2.50;;;11.90;99.90;;;;;;5016349;28;20216;-49
2021/11/02 16:05:42;;;;;;;4.93;2.80;;;11.90;99.90;;;;;;5017133;28;20228;-50
2021/11/02 16:08:20;;;;;;;3.17;2.55;;;11.80;99.90;;;;;;5020111;28;20246;-51
2021/11/02 16:10:53;;;;;;;1.80;1.55;;;11.90;99.90;;;;;;5026208;28;20250;-51
2021/11/02 16:13:25;;;;;;;3.25;1.98;;;12.00;99.90;;;;;;5016166;28;20242;-49
2021/11/02 16:15:55;;;;;;;1.95;1.83;;;12.00;99.90;;;;;;5021539;28;20203;-49
2021/11/02 16:18:32;;;;;;;2.70;2.50;;;12.10;99.90;;;;;;5019428;28;20269;-52
2021/11/02 16:21:03;;;;;;;2.05;1.67;;;12.00;99.90;;;;;;5025876;28;20213;-47
2021/11/02 16:23:44;;;;;;;2.08;1.88;;;12.10;99.90;;;;;;5025678;28;20232;-48
2021/11/02 16:26:16;;;;;;;2.42;2.20;;;12.20;99.90;;;;;;5023774;28;20208;-46
2021/11/02 16:28:44;;;;;;;2.42;2.03;;;12.20;99.90;;;;;;5022341;28;20454;-52
2021/11/02 16:31:25;;;;;;;3.67;2.35;;;12.20;99.90;;;;;;5020524;28;20409;-52
2021/11/02 16:33:52;;;;;;;2.20;2.00;;;12.10;99.90;;;;;;5020942;28;20279;-49
2021/11/02 16:36:23;;;;;;;2.45;2.08;;;12.10;99.90;;;;;;5010915;28;20493;-48
2021/11/02 16:39:13;;;;;;;3.22;2.55;;;12.20;99.90;;;;;;5021758;28;20212;-48
2021/11/02 16:41:59;;;;;;;4.65;3.40;;;12.10;99.90;;;;;;5007244;28;20307;-47
2021/11/02 16:44:35;;;;;;;2.63;2.42;;;12.10;99.90;;;;;;5006117;28;20247;-48
2021/11/02 16:47:04;;;;;;;5.85;3.80;;;12.10;99.90;;;;;;5006908;28;20234;-48
2021/11/02 16:49:34;;;;;;;6.45;3.45;;;12.10;99.90;;;;;;5007877;28;20236;-50
2021/11/02 16:52:11;;;;;;;2.90;2.42;;;12.00;99.90;;;;;;5005273;28;20200;-48
2021/11/02 16:54:42;;;;;;;3.00;2.30;;;12.00;99.90;;;;;;5004799;28;20211;-47
2021/11/02 16:57:19;;;;;;;6.68;2.75;;;12.00;99.90;;;;;;5013244;28;20227;-48
2021/11/02 17:00:09;;;;;;;4.45;4.07;;;11.90;99.90;;;;;;5009548;28;20238;-51
2021/11/02 17:02:41;;;;;;;5.30;4.07;;;11.70;99.90;;;;;;5021910;28;20207;-49
2021/11/02 17:05:17;;;;;;;6.30;4.60;;;11.60;99.90;;;;;;5014694;28;20514;-49
2021/11/02 17:07:54;;;;;;;5.63;5.07;;;11.50;99.90;;;;;;5014423;28;20562;-47
2021/11/02 17:10:25;;;;;;;6.40;5.80;;;11.50;99.90;;;;;;5026808;28;20235;-43
2021/11/02 17:13:08;;;;;;;8.35;6.20;;;11.30;99.90;;;;;;5016611;28;20327;-49
2021/11/02 17:15:47;;;;;;;9.45;5.68;;;11.30;99.90;;;;;;5005264;28;20535;-47
2021/11/02 17:18:38;;;;;;;6.10;5.38;;;11.30;99.90;;;;;;5012475;28;20347;-50
2021/11/02 17:21:10;;;;;;;9.95;5.43;;;11.10;99.90;;;;;;4984099;28;20212;-46
2021/11/02 17:23:38;;;;;;;9.90;5.38;;;11.00;99.90;;;;;;5003799;28;20347;-45
2021/11/02 17:26:07;;;;;;;8.65;4.80;;;11.10;99.90;;;;;;5010197;28;20212;-50
2021/11/02 17:28:35;;;;;;;5.65;4.95;;;10.80;99.90;;;;;;5009101;28;20248;-44
2021/11/02 17:31:05;;;;;;;6.38;4.95;;;11.00;99.90;;;;;;5009002;28;20199;-48
2021/11/02 17:33:36;;;;;;;11.00;6.60;;;11.20;99.90;;;;;;5007329;28;20255;-49
2021/11/02 17:36:06;;;;;;;8.55;5.93;;;11.10;99.90;;;;;;5007333;28;20201;-47
2021/11/02 17:38:36;;;;;;;5.97;5.38;;;11.10;99.90;;;;;;5021779;28;20274;-46
2021/11/02 17:41:04;;;;;;;8.50;6.25;;;11.20;99.90;;;;;;5021825;28;20219;-50
2021/11/02 17:43:32;;;;;;;8.52;5.78;;;11.20;99.90;;;;;;5014316;28;20207;-52
2021/11/02 17:46:00;;;;;;;7.95;6.20;;;11.20;99.90;;;;;;5022131;28;20210;-47
2021/11/02 17:48:28;;;;;;;13.70;7.05;;;11.20;99.90;;;;;;5017992;28;20227;-52
2021/11/02 17:50:55;;;;;;;10.10;6.18;;;10.90;99.90;;;;;;5020324;28;20400;-45
2021/11/02 17:53:23;;;;;;;8.43;6.50;;;10.80;99.90;;;;;;5025759;28;20519;-51
2021/11/02 17:55:55;;;;;;;9.82;7.20;;;10.50;99.90;;;;;;5019756;28;20214;-49
2021/11/02 17:58:25;;;;;;;8.93;6.95;;;10.40;99.90;;;;;;5025298;28;20202;-49
2021/11/02 18:00:55;;;;;;;10.20;7.60;;;10.50;99.90;;;;;;5029731;28;20223;-51
2021/11/02 18:03:34;;;;;;;8.55;6.53;;;10.70;99.90;;;;;;5024709;28;20206;-51
2021/11/02 18:06:07;;;;;;;9.25;7.05;;;10.60;99.90;;;;;;5021253;28;20397;-46
2021/11/02 18:08:36;;;;;;;14.30;7.07;;;10.60;99.90;;;;;;5023532;28;20289;-49
2021/11/02 18:11:06;;;;;;;7.97;6.68;;;10.70;99.90;;;;;;5021137;28;20270;-46
2021/11/02 18:13:34;;;;;;;8.85;6.68;;;10.90;99.90;;;;;;5019981;28;20238;-49
2021/11/02 18:16:07;;;;;;;12.98;8.07;;;10.80;99.90;;;;;;5023554;28;20232;-49
2021/11/02 18:18:40;;;;;;;11.25;7.03;;;10.50;99.90;;;;;;5022686;28;20212;-52
2021/11/02 18:21:18;;;;;;;9.60;7.32;;;10.50;99.90;;;;;;5027584;28;20380;-53
2021/11/02 18:23:50;;;;;;;11.25;6.47;;;10.40;99.90;;;;;;5022218;28;20301;-53
2021/11/02 18:26:23;;;;;;;10.25;7.57;;;10.30;99.90;;;;;;5013376;28;20206;-51